Terminal Aerodrome Forecast
Issued by NWS

Current Version | Previous Version | Graphics & Text | Print | Product List | Glossary On
Versions: 1 2 3 4 5 6 7 8 9 10 11 12 13 14 15 16 17 18 19 20 21
000
FTUS41 KILN 261100
TAFLUK
TAF
KLUK 261130Z 2612/2712 04004KT P6SM SCT012 SCT120
      TEMPO 2612/2615 BKN012
     FM270000 04005KT P6SM BKN015
     FM270600 34007KT P6SM BKN015=

USA.gov is the U.S. government's official web portal to all federal, state and local government web resources and services.